createdAt,value
2023-06-14T00:00:01.919Z,3.47
2023-06-14T00:01:02.962Z,3.03
2023-06-14T00:02:03.043Z,2.92
2023-06-14T00:03:02.176Z,3.16
2023-06-14T00:04:02.166Z,2.81
2023-06-14T00:05:03.131Z,2.85
2023-06-14T00:06:02.175Z,2.94
2023-06-14T00:07:02.162Z,3.38
2023-06-14T00:08:02.216Z,2.73
2023-06-14T00:09:02.279Z,2.98
2023-06-14T00:10:02.245Z,2.68
2023-06-14T00:11:03.267Z,3.40
2023-06-14T00:12:02.337Z,2.81
2023-06-14T00:13:03.398Z,2.86
2023-06-14T00:14:03.396Z,3.10
2023-06-14T00:15:03.441Z,3.13
2023-06-14T00:16:02.485Z,3.07
2023-06-14T00:17:03.571Z,2.66
2023-06-14T00:18:03.531Z,2.54
2023-06-14T00:19:02.540Z,2.75
2023-06-14T00:20:03.563Z,3.35
2023-06-14T00:21:03.592Z,3.27
2023-06-14T00:22:03.665Z,3.00
2023-06-14T00:23:03.658Z,2.94
2023-06-14T00:24:02.680Z,3.00
2023-06-14T00:25:15.041Z,2.63
2023-06-14T00:26:03.660Z,3.25
2023-06-14T00:27:02.677Z,2.97
2023-06-14T00:28:02.712Z,3.87
2023-06-14T00:29:03.643Z,2.68
2023-06-14T00:30:03.619Z,2.71
2023-06-14T00:31:02.610Z,2.57
2023-06-14T00:32:03.697Z,3.08
2023-06-14T00:33:03.659Z,2.88
2023-06-14T00:34:02.628Z,3.20
2023-06-14T00:35:03.578Z,2.75
2023-06-14T00:36:02.685Z,3.01
2023-06-14T00:37:03.593Z,3.30
2023-06-14T00:38:03.649Z,3.24
2023-06-14T00:39:03.576Z,2.70
2023-06-14T00:40:02.573Z,3.05
2023-06-14T00:41:03.575Z,3.00
2023-06-14T00:42:02.539Z,2.80
2023-06-14T00:43:03.525Z,3.11
2023-06-14T00:44:03.511Z,2.86
2023-06-14T00:45:03.516Z,2.76
2023-06-14T00:46:02.598Z,3.03
2023-06-14T00:47:03.532Z,2.87
2023-06-14T00:48:03.615Z,2.79
2023-06-14T00:49:03.480Z,3.03
2023-06-14T00:50:03.496Z,3.06
2023-06-14T00:51:02.463Z,3.39
2023-06-14T00:52:02.480Z,2.94
2023-06-14T00:53:03.503Z,2.95
2023-06-14T00:54:02.455Z,2.99
2023-06-14T00:55:02.468Z,3.14
2023-06-14T00:56:03.433Z,3.07
2023-06-14T00:57:03.411Z,2.55
2023-06-14T00:58:03.414Z,2.58
2023-06-14T00:59:02.416Z,2.27
2023-06-14T01:00:03.418Z,2.77
2023-06-14T01:01:03.394Z,3.01
2023-06-14T01:02:03.422Z,2.61
2023-06-14T01:03:03.439Z,2.83
2023-06-14T01:04:03.420Z,2.87
2023-06-14T01:05:03.354Z,3.40
2023-06-14T01:06:03.512Z,2.90
2023-06-14T01:07:03.336Z,2.95
2023-06-14T01:08:03.345Z,3.10
2023-06-14T01:09:02.330Z,3.11
2023-06-14T01:10:02.366Z,3.19
2023-06-14T01:11:03.338Z,2.77
2023-06-14T01:12:03.319Z,3.05
2023-06-14T01:13:02.562Z,2.88
2023-06-14T01:14:02.581Z,2.73
2023-06-14T01:15:03.620Z,3.06
2023-06-14T01:16:02.705Z,3.60
2023-06-14T01:17:03.665Z,3.16
2023-06-14T01:18:02.630Z,2.92
2023-06-14T01:19:03.642Z,2.96
2023-06-14T01:20:02.641Z,2.60
2023-06-14T01:21:03.653Z,2.81
2023-06-14T01:22:03.695Z,3.27
2023-06-14T01:23:03.683Z,3.02
2023-06-14T01:24:03.765Z,3.22
2023-06-14T01:25:02.684Z,3.00
2023-06-14T01:26:03.702Z,2.69
2023-06-14T01:27:02.726Z,3.30
2023-06-14T01:28:02.715Z,2.82
2023-06-14T01:29:03.765Z,3.11
2023-06-14T01:30:02.752Z,3.29
2023-06-14T01:31:03.760Z,3.04
2023-06-14T01:32:03.760Z,2.85
2023-06-14T01:33:03.854Z,3.48
2023-06-14T01:34:03.818Z,2.96
2023-06-14T01:35:03.894Z,3.10
2023-06-14T01:36:03.827Z,3.48
2023-06-14T01:37:03.879Z,3.09
2023-06-14T01:38:03.881Z,3.05
2023-06-14T01:39:02.882Z,3.17
2023-06-14T01:40:03.883Z,2.79
2023-06-14T01:41:03.895Z,2.34
2023-06-14T01:42:03.902Z,3.44
2023-06-14T01:43:03.981Z,3.08
2023-06-14T01:44:03.934Z,2.62
2023-06-14T01:45:03.934Z,3.17
2023-06-14T01:46:04.633Z,2.70
2023-06-14T01:47:03.962Z,3.07
2023-06-14T01:48:04.074Z,2.97
2023-06-14T01:49:03.054Z,2.83
2023-06-14T01:50:04.050Z,2.74
2023-06-14T01:51:04.042Z,2.96
2023-06-14T01:52:04.060Z,2.70
2023-06-14T01:53:04.088Z,3.63
2023-06-14T01:54:04.075Z,2.91
2023-06-14T01:55:04.156Z,2.88
2023-06-14T01:56:04.125Z,3.27
2023-06-14T01:57:04.119Z,2.77
2023-06-14T01:58:03.153Z,2.96
2023-06-14T01:59:04.187Z,3.01
2023-06-14T02:00:04.174Z,2.59
2023-06-14T02:01:03.249Z,2.98
2023-06-14T02:02:04.258Z,3.21
2023-06-14T02:03:04.276Z,3.03
2023-06-14T02:04:03.256Z,2.75
2023-06-14T02:05:04.387Z,2.67
2023-06-14T02:06:04.403Z,2.97
2023-06-14T02:07:04.425Z,2.80
2023-06-14T02:08:04.382Z,3.03
2023-06-14T02:09:04.403Z,3.20
2023-06-14T02:10:04.432Z,3.35
2023-06-14T02:11:04.404Z,3.55
2023-06-14T02:12:04.513Z,3.00
2023-06-14T02:13:04.479Z,2.44
2023-06-14T02:14:04.488Z,3.64
2023-06-14T02:15:04.516Z,2.81
2023-06-14T02:16:04.592Z,2.87
2023-06-14T02:17:04.547Z,2.64
2023-06-14T02:18:04.594Z,2.82
2023-06-14T02:19:03.584Z,3.08
2023-06-14T02:20:04.592Z,3.00
2023-06-14T02:21:04.606Z,2.95
2023-06-14T02:22:04.657Z,3.41
2023-06-14T02:23:03.689Z,2.84
2023-06-14T02:24:04.728Z,3.36
2023-06-14T02:25:04.700Z,3.24
2023-06-14T02:26:04.729Z,2.91
2023-06-14T02:27:04.741Z,2.58
2023-06-14T02:28:03.767Z,3.33
2023-06-14T02:29:04.750Z,2.82
2023-06-14T02:30:04.790Z,2.77
2023-06-14T02:31:04.824Z,3.03
2023-06-14T02:32:04.917Z,3.11
2023-06-14T02:33:03.928Z,3.20
2023-06-14T02:34:03.850Z,3.46
2023-06-14T02:35:03.893Z,3.24
2023-06-14T02:36:04.908Z,2.57
2023-06-14T02:37:03.944Z,2.41
2023-06-14T02:38:04.945Z,3.28
2023-06-14T02:39:04.954Z,2.73
2023-06-14T02:40:04.986Z,2.88
2023-06-14T02:41:05.062Z,2.84
2023-06-14T02:42:05.090Z,3.28
2023-06-14T02:43:05.078Z,3.12
2023-06-14T02:44:05.113Z,2.78
2023-06-14T02:45:05.138Z,2.85
2023-06-14T02:46:05.140Z,2.63
2023-06-14T02:47:05.251Z,2.83
2023-06-14T02:48:05.348Z,3.04
2023-06-14T02:49:04.217Z,2.89
2023-06-14T02:50:05.232Z,3.11
2023-06-14T02:51:05.272Z,3.01
2023-06-14T02:52:04.315Z,3.01
2023-06-14T02:53:04.301Z,3.12
2023-06-14T02:54:04.360Z,2.99
2023-06-14T02:55:04.361Z,2.81
2023-06-14T02:56:05.367Z,2.56
2023-06-14T02:57:05.457Z,3.13
2023-06-14T02:58:05.484Z,3.08
2023-06-14T02:59:05.453Z,3.08
2023-06-14T03:00:05.462Z,3.31
2023-06-14T03:01:05.604Z,2.26
2023-06-14T03:02:05.566Z,2.64
2023-06-14T03:03:04.631Z,2.63
2023-06-14T03:04:05.695Z,3.10
2023-06-14T03:05:05.598Z,2.96
2023-06-14T03:06:04.639Z,3.34
2023-06-14T03:07:05.715Z,2.77
2023-06-14T03:08:05.714Z,2.42
2023-06-14T03:09:05.720Z,2.97
2023-06-14T03:10:05.724Z,2.78
2023-06-14T03:11:04.742Z,3.01
2023-06-14T03:12:05.781Z,2.69
2023-06-14T03:13:05.823Z,3.10
2023-06-14T03:14:05.865Z,2.82
2023-06-14T03:15:05.856Z,2.96
2023-06-14T03:16:05.912Z,3.42
2023-06-14T03:17:06.269Z,2.98
2023-06-14T03:18:05.022Z,2.90
2023-06-14T03:19:06.016Z,2.45
2023-06-14T03:20:06.039Z,3.18
2023-06-14T03:21:06.071Z,2.56
2023-06-14T03:22:06.100Z,3.03
2023-06-14T03:23:06.126Z,3.15
2023-06-14T03:24:05.172Z,2.79
2023-06-14T03:25:06.178Z,3.09
2023-06-14T03:26:06.204Z,2.83
2023-06-14T03:27:05.269Z,2.82
2023-06-14T03:28:06.303Z,3.05
2023-06-14T03:29:05.321Z,2.87
2023-06-14T03:30:06.338Z,2.63
2023-06-14T03:31:05.409Z,3.15
2023-06-14T03:32:06.393Z,2.49
2023-06-14T03:33:07.036Z,2.47
2023-06-14T03:34:06.464Z,2.75
2023-06-14T03:35:05.520Z,2.87
2023-06-14T03:36:06.509Z,2.94
2023-06-14T03:37:06.523Z,2.77
2023-06-14T03:38:06.556Z,2.91
2023-06-14T03:39:06.626Z,2.69
2023-06-14T03:40:05.649Z,3.12
2023-06-14T03:41:06.674Z,2.35
2023-06-14T03:42:06.699Z,3.01
2023-06-14T03:43:06.749Z,2.88
2023-06-14T03:44:06.775Z,2.79
2023-06-14T03:45:06.795Z,2.99
2023-06-14T03:46:06.842Z,2.87
2023-06-14T03:47:06.881Z,3.02
2023-06-14T03:48:06.973Z,2.56
2023-06-14T03:49:06.913Z,2.95
2023-06-14T03:50:06.947Z,2.92
2023-06-14T03:51:06.993Z,2.91
2023-06-14T03:52:07.029Z,2.93
2023-06-14T03:53:06.033Z,2.96
2023-06-14T03:54:41.862Z,2.77
2023-06-14T03:56:06.058Z,2.50
2023-06-14T03:57:07.110Z,3.24
2023-06-14T03:58:07.088Z,3.30
2023-06-14T03:59:06.057Z,3.37
2023-06-14T04:00:07.066Z,2.56
2023-06-14T04:01:07.019Z,3.02
2023-06-14T04:02:07.177Z,3.11
2023-06-14T04:03:07.243Z,2.93
2023-06-14T04:04:07.158Z,2.88
2023-06-14T04:05:07.032Z,3.18
2023-06-14T04:06:06.077Z,3.26
2023-06-14T04:07:05.992Z,2.99
2023-06-14T04:08:06.987Z,2.95
2023-06-14T04:09:06.966Z,2.62
2023-06-14T04:10:06.957Z,2.56
2023-06-14T04:11:06.956Z,3.26
2023-06-14T04:12:06.936Z,3.40
2023-06-14T04:13:06.936Z,3.28
2023-06-14T04:14:06.947Z,2.96
2023-06-14T04:15:19.163Z,3.19
2023-06-14T04:16:06.976Z,2.96
2023-06-14T04:17:06.904Z,2.65
2023-06-14T04:18:06.963Z,2.59
2023-06-14T04:19:06.915Z,2.94
2023-06-14T04:20:06.908Z,2.85
2023-06-14T04:21:05.936Z,2.65
2023-06-14T04:22:06.867Z,2.63
2023-06-14T04:23:06.889Z,2.75
2023-06-14T04:24:05.895Z,2.92
2023-06-14T04:25:06.855Z,2.66
2023-06-14T04:26:06.864Z,3.10
2023-06-14T04:27:05.874Z,3.41
2023-06-14T04:28:06.831Z,3.01
2023-06-14T04:29:06.822Z,2.99
2023-06-14T04:30:05.813Z,2.78
2023-06-14T04:31:06.824Z,3.34
2023-06-14T04:32:06.807Z,2.92
2023-06-14T04:33:06.958Z,2.56
2023-06-14T04:34:06.848Z,2.89
2023-06-14T04:35:05.793Z,2.88
2023-06-14T04:36:06.775Z,3.01
2023-06-14T04:37:06.772Z,2.88
2023-06-14T04:38:06.760Z,3.51
2023-06-14T04:39:06.820Z,2.54
2023-06-14T04:40:06.747Z,2.85
2023-06-14T04:41:06.770Z,3.37
2023-06-14T04:42:06.738Z,2.92
2023-06-14T04:43:05.739Z,2.94
2023-06-14T04:44:05.717Z,3.13
2023-06-14T04:45:05.722Z,2.46
2023-06-14T04:46:06.737Z,3.08
2023-06-14T04:47:06.702Z,2.56
2023-06-14T04:48:05.752Z,3.18
2023-06-14T04:49:06.758Z,2.59
2023-06-14T04:50:06.808Z,2.69
2023-06-14T04:51:05.850Z,3.08
2023-06-14T04:52:06.853Z,3.01
2023-06-14T04:53:05.902Z,3.03
2023-06-14T04:54:06.941Z,3.07
2023-06-14T04:55:06.977Z,2.86
2023-06-14T04:56:06.987Z,3.02
2023-06-14T04:57:06.061Z,2.81
2023-06-14T04:58:07.042Z,3.51
2023-06-14T04:59:07.087Z,2.64
2023-06-14T05:00:06.088Z,2.96
2023-06-14T05:01:07.145Z,2.61
2023-06-14T05:02:07.162Z,2.93
2023-06-14T05:03:06.280Z,2.95
2023-06-14T05:04:07.390Z,3.10
2023-06-14T05:05:07.223Z,2.89
2023-06-14T05:06:07.294Z,3.22
2023-06-14T05:07:06.269Z,2.73
2023-06-14T05:08:07.313Z,2.78
2023-06-14T05:09:07.346Z,2.65
2023-06-14T05:10:07.374Z,2.84
2023-06-14T05:11:07.413Z,2.72
2023-06-14T05:12:06.430Z,2.96
2023-06-14T05:13:07.501Z,2.83
2023-06-14T05:14:07.470Z,2.94
2023-06-14T05:15:07.609Z,2.89
2023-06-14T05:16:06.661Z,2.91
2023-06-14T05:17:07.611Z,2.88
2023-06-14T05:18:07.655Z,2.75
2023-06-14T05:19:07.641Z,2.82
2023-06-14T05:20:07.760Z,3.53
2023-06-14T05:21:07.631Z,2.77
2023-06-14T05:22:07.649Z,2.88
2023-06-14T05:23:07.864Z,3.79
2023-06-14T05:24:06.669Z,3.46
2023-06-14T05:25:07.711Z,3.32
2023-06-14T05:26:08.274Z,2.78
2023-06-14T05:27:09.274Z,2.38
2023-06-14T05:28:08.429Z,2.57
2023-06-14T05:29:07.729Z,2.54
2023-06-14T05:30:10.327Z,2.77
2023-06-14T05:31:07.856Z,3.12
2023-06-14T05:32:07.728Z,2.61
2023-06-14T05:33:07.704Z,2.66
2023-06-14T05:34:07.763Z,3.03
2023-06-14T05:35:07.784Z,3.11
2023-06-14T05:36:08.781Z,3.27
2023-06-14T05:37:07.676Z,3.20
2023-06-14T05:38:09.023Z,2.56
2023-06-14T05:39:07.727Z,3.43
2023-06-14T05:40:09.856Z,3.21
2023-06-14T05:41:06.694Z,3.31
2023-06-14T05:42:07.666Z,3.10
2023-06-14T05:43:07.135Z,3.33
2023-06-14T05:44:07.733Z,2.85
2023-06-14T05:45:08.702Z,2.76
2023-06-14T05:46:07.648Z,3.14
2023-06-14T05:47:08.649Z,2.55
2023-06-14T05:48:07.732Z,3.24
2023-06-14T05:49:07.929Z,3.63
2023-06-14T05:50:08.635Z,4.14
2023-06-14T05:51:07.662Z,5.00
2023-06-14T05:52:06.647Z,5.82
2023-06-14T05:53:07.765Z,5.34
2023-06-14T05:54:07.724Z,5.89
2023-06-14T05:55:07.707Z,5.99
2023-06-14T05:56:07.801Z,5.85
2023-06-14T05:57:08.140Z,6.93
2023-06-14T05:58:07.986Z,6.10
2023-06-14T05:59:07.988Z,6.50
2023-06-14T06:00:07.904Z,6.79
2023-06-14T06:01:08.366Z,6.38
2023-06-14T06:02:08.044Z,7.05
2023-06-14T06:03:08.108Z,7.27
2023-06-14T06:04:08.426Z,7.74
2023-06-14T06:05:08.067Z,7.39
2023-06-14T06:06:08.127Z,7.41
2023-06-14T06:07:07.136Z,7.69
2023-06-14T06:08:08.183Z,8.01
2023-06-14T06:09:07.411Z,8.43
2023-06-14T06:10:08.311Z,8.07
2023-06-14T06:11:07.265Z,8.71
2023-06-14T06:12:07.290Z,8.18
2023-06-14T06:13:10.010Z,7.61
2023-06-14T06:14:08.340Z,7.30
2023-06-14T06:15:08.312Z,8.11
2023-06-14T06:16:08.285Z,7.84
2023-06-14T06:17:08.697Z,8.07
2023-06-14T06:18:07.354Z,7.82
2023-06-14T06:19:07.325Z,8.05
2023-06-14T06:20:08.240Z,7.77
2023-06-14T06:21:07.258Z,8.26
2023-06-14T06:22:08.299Z,8.07
2023-06-14T06:23:08.813Z,8.14
2023-06-14T06:24:08.312Z,8.42
2023-06-14T06:25:08.427Z,8.72
2023-06-14T06:26:08.213Z,8.94
2023-06-14T06:27:07.218Z,8.37
2023-06-14T06:28:08.759Z,8.77
2023-06-14T06:29:08.222Z,8.60
2023-06-14T06:30:08.239Z,8.69
2023-06-14T06:31:08.562Z,9.55
2023-06-14T06:32:08.161Z,8.80
2023-06-14T06:33:08.822Z,10.63
2023-06-14T06:34:08.371Z,8.76
2023-06-14T06:35:09.167Z,8.81
2023-06-14T06:36:08.252Z,8.62
2023-06-14T06:37:08.254Z,8.31
2023-06-14T06:38:08.102Z,9.08
2023-06-14T06:39:08.525Z,8.45
2023-06-14T06:40:08.166Z,8.60
2023-06-14T06:41:07.104Z,9.11
2023-06-14T06:42:08.181Z,8.33
2023-06-14T06:43:11.168Z,8.42
2023-06-14T06:44:08.938Z,8.46
2023-06-14T06:45:08.185Z,7.41
2023-06-14T06:46:08.155Z,8.58
2023-06-14T06:47:08.530Z,8.62
2023-06-14T06:48:08.199Z,9.20
2023-06-14T06:49:08.535Z,9.41
2023-06-14T06:50:08.089Z,9.69
2023-06-14T06:51:08.094Z,8.96
2023-06-14T06:52:08.191Z,9.08
2023-06-14T06:53:08.143Z,9.02
2023-06-14T06:54:09.125Z,9.01
2023-06-14T06:55:07.918Z,9.20
2023-06-14T06:56:08.266Z,8.70
2023-06-14T06:57:08.335Z,8.43
2023-06-14T06:58:08.213Z,9.69
2023-06-14T06:59:07.288Z,8.05
2023-06-14T07:00:08.307Z,8.78
2023-06-14T07:01:07.309Z,7.90
2023-06-14T07:02:08.342Z,8.86
2023-06-14T07:03:08.523Z,8.32
2023-06-14T07:04:08.449Z,9.30
2023-06-14T07:05:08.463Z,8.34
2023-06-14T07:06:08.442Z,8.42
2023-06-14T07:07:07.458Z,7.84
2023-06-14T07:08:08.506Z,7.65
2023-06-14T07:09:08.526Z,7.64
2023-06-14T07:10:08.569Z,7.65
2023-06-14T07:11:08.621Z,7.96
2023-06-14T07:12:07.707Z,8.71
2023-06-14T07:13:10.301Z,7.99
2023-06-14T07:14:08.744Z,7.18
2023-06-14T07:15:07.656Z,8.55
2023-06-14T07:16:08.730Z,8.06
2023-06-14T07:17:08.632Z,7.92
2023-06-14T07:18:07.870Z,8.25
2023-06-14T07:19:08.675Z,7.76
2023-06-14T07:20:08.663Z,8.34
2023-06-14T07:21:08.673Z,8.34
2023-06-14T07:22:08.708Z,7.93
2023-06-14T07:23:08.626Z,8.31
2023-06-14T07:24:07.691Z,8.42
2023-06-14T07:25:07.604Z,7.37
2023-06-14T07:26:08.728Z,8.33
2023-06-14T07:27:08.574Z,9.08
2023-06-14T07:28:08.607Z,8.39
2023-06-14T07:29:08.643Z,8.14
2023-06-14T07:30:08.665Z,8.30
2023-06-14T07:31:08.550Z,7.98
2023-06-14T07:32:08.534Z,8.11
2023-06-14T07:33:08.826Z,7.88
2023-06-14T07:34:08.587Z,9.21
2023-06-14T07:35:08.540Z,8.39
2023-06-14T07:36:08.547Z,8.17
2023-06-14T07:37:07.530Z,9.05
2023-06-14T07:38:08.500Z,8.80
2023-06-14T07:39:08.502Z,7.95
2023-06-14T07:40:08.593Z,8.30
2023-06-14T07:41:07.468Z,8.34
2023-06-14T07:42:08.477Z,8.49
2023-06-14T07:43:08.500Z,7.86
2023-06-14T07:44:08.450Z,8.22
2023-06-14T07:45:08.473Z,7.60
2023-06-14T07:46:08.493Z,8.41
2023-06-14T07:47:08.541Z,8.08
2023-06-14T07:48:08.591Z,6.62
2023-06-14T07:49:08.931Z,7.20
2023-06-14T07:50:08.529Z,7.53
2023-06-14T07:51:08.596Z,8.36
2023-06-14T07:52:08.599Z,7.34
2023-06-14T07:53:08.697Z,8.53
2023-06-14T07:54:07.759Z,7.96
2023-06-14T07:55:07.730Z,7.75
2023-06-14T07:56:08.772Z,7.36
2023-06-14T07:57:07.798Z,7.73
2023-06-14T07:58:08.908Z,6.73
2023-06-14T07:59:08.856Z,8.10
2023-06-14T08:00:08.900Z,7.98
2023-06-14T08:01:08.895Z,6.63
2023-06-14T08:02:08.949Z,6.98
2023-06-14T08:03:08.038Z,6.50
2023-06-14T08:04:08.059Z,6.48
2023-06-14T08:05:08.083Z,7.25
2023-06-14T08:06:09.122Z,7.26
2023-06-14T08:07:09.136Z,6.74
2023-06-14T08:08:09.145Z,6.85
2023-06-14T08:09:08.149Z,6.67
2023-06-14T08:10:08.191Z,5.95
2023-06-14T08:11:08.213Z,7.17
2023-06-14T08:12:09.273Z,7.35
2023-06-14T08:13:09.300Z,7.60
2023-06-14T08:14:09.425Z,6.87
2023-06-14T08:15:15.897Z,6.73
2023-06-14T08:16:09.363Z,6.27
2023-06-14T08:17:09.322Z,6.75
2023-06-14T08:18:09.394Z,6.63
2023-06-14T08:19:09.322Z,6.43
2023-06-14T08:20:09.351Z,6.82
2023-06-14T08:21:09.318Z,6.09
2023-06-14T08:22:09.292Z,6.92
2023-06-14T08:23:09.322Z,6.08
2023-06-14T08:24:09.428Z,6.82
2023-06-14T08:25:09.301Z,5.95
2023-06-14T08:26:09.289Z,6.55
2023-06-14T08:27:08.282Z,5.89
2023-06-14T08:28:08.242Z,6.04
2023-06-14T08:29:09.235Z,6.44
2023-06-14T08:30:09.264Z,6.77
2023-06-14T08:31:09.214Z,5.84
2023-06-14T08:32:09.312Z,6.32
2023-06-14T08:33:16.546Z,5.80
2023-06-14T08:34:09.238Z,6.43
2023-06-14T08:35:09.206Z,6.79
2023-06-14T08:36:09.182Z,6.22
2023-06-14T08:37:08.191Z,5.95
2023-06-14T08:38:09.186Z,6.17
2023-06-14T08:39:09.217Z,6.19
2023-06-14T08:40:09.200Z,6.16
2023-06-14T08:41:09.218Z,5.55
2023-06-14T08:42:14.792Z,5.41
2023-06-14T08:43:09.135Z,5.77
2023-06-14T08:44:09.132Z,5.39
2023-06-14T08:45:08.344Z,5.18
2023-06-14T08:46:08.216Z,6.03
2023-06-14T08:47:08.124Z,6.47
2023-06-14T08:48:08.157Z,5.89
2023-06-14T08:49:09.159Z,6.03
2023-06-14T08:50:16.104Z,6.97
2023-06-14T08:51:09.289Z,6.28
2023-06-14T08:52:09.088Z,5.99
2023-06-14T08:53:09.070Z,5.82
2023-06-14T08:54:09.164Z,5.70
2023-06-14T08:55:09.496Z,6.29
2023-06-14T08:56:09.449Z,5.83
2023-06-14T08:57:09.143Z,5.71
2023-06-14T08:58:09.052Z,6.91
2023-06-14T08:59:09.249Z,6.18
2023-06-14T09:00:09.260Z,6.06
2023-06-14T09:01:09.149Z,6.83
2023-06-14T09:02:13.525Z,6.13
2023-06-14T09:03:08.343Z,6.57
2023-06-14T09:04:09.487Z,6.20
2023-06-14T09:05:08.438Z,6.39
2023-06-14T09:06:09.541Z,6.59
2023-06-14T09:07:09.513Z,6.57
2023-06-14T09:08:09.512Z,6.64
2023-06-14T09:09:09.535Z,6.35
2023-06-14T09:10:08.649Z,6.53
2023-06-14T09:11:09.655Z,6.60
2023-06-14T09:12:09.651Z,6.68
2023-06-14T09:13:09.718Z,6.58
2023-06-14T09:14:08.764Z,6.57
2023-06-14T09:15:08.844Z,5.82
2023-06-14T09:16:09.850Z,5.86
2023-06-14T09:17:09.966Z,5.94
2023-06-14T09:18:10.009Z,5.87
2023-06-14T09:19:09.961Z,5.66
2023-06-14T09:20:10.072Z,5.71
2023-06-14T09:21:10.069Z,6.46
2023-06-14T09:22:10.098Z,5.61
2023-06-14T09:23:10.124Z,5.39
2023-06-14T09:24:10.255Z,6.03
2023-06-14T09:25:14.384Z,5.63
2023-06-14T09:26:10.227Z,6.10
2023-06-14T09:27:10.260Z,6.32
2023-06-14T09:28:10.541Z,6.35
2023-06-14T09:29:10.253Z,5.41
2023-06-14T09:30:10.292Z,4.89
2023-06-14T09:31:10.275Z,5.83
2023-06-14T09:32:10.165Z,5.77
2023-06-14T09:33:10.269Z,5.42
2023-06-14T09:34:09.149Z,5.95
2023-06-14T09:35:10.156Z,5.84
2023-06-14T09:36:09.145Z,5.14
2023-06-14T09:37:09.127Z,5.22
2023-06-14T09:38:10.405Z,5.84
2023-06-14T09:39:10.258Z,5.39
2023-06-14T09:40:10.132Z,5.20
2023-06-14T09:41:09.147Z,5.23
2023-06-14T09:42:10.137Z,4.96
2023-06-14T09:43:10.112Z,5.68
2023-06-14T09:44:14.573Z,6.01
2023-06-14T09:45:10.075Z,5.07
2023-06-14T09:46:10.063Z,5.27
2023-06-14T09:47:10.102Z,4.90
2023-06-14T09:48:09.149Z,5.78
2023-06-14T09:49:09.304Z,6.21
2023-06-14T09:50:10.307Z,5.44
2023-06-14T09:51:10.056Z,5.67
2023-06-14T09:52:10.052Z,5.78
2023-06-14T09:53:10.033Z,5.83
2023-06-14T09:54:10.036Z,5.75
2023-06-14T09:55:10.314Z,5.43
2023-06-14T09:56:09.022Z,5.42
2023-06-14T09:57:10.048Z,5.15
2023-06-14T09:58:10.035Z,5.80
2023-06-14T09:59:09.984Z,5.50
2023-06-14T10:00:09.024Z,5.09
2023-06-14T10:01:10.033Z,4.95
2023-06-14T10:02:09.000Z,5.28
2023-06-14T10:03:08.955Z,4.75
2023-06-14T10:04:11.520Z,5.36
2023-06-14T10:05:10.051Z,5.10
2023-06-14T10:06:09.938Z,4.56
2023-06-14T10:07:10.007Z,4.84
2023-06-14T10:08:08.965Z,5.72
2023-06-14T10:09:10.031Z,4.57
2023-06-14T10:10:09.905Z,4.86
2023-06-14T10:11:09.910Z,4.53
2023-06-14T10:12:09.921Z,4.57
2023-06-14T10:13:09.934Z,4.64
2023-06-14T10:14:09.862Z,5.02
2023-06-14T10:15:09.884Z,5.60
2023-06-14T10:16:09.925Z,4.98
2023-06-14T10:17:08.930Z,4.57
2023-06-14T10:18:09.861Z,4.45
2023-06-14T10:19:09.818Z,5.00
2023-06-14T10:20:09.927Z,5.03
2023-06-14T10:21:09.870Z,4.50
2023-06-14T10:22:08.852Z,4.85
2023-06-14T10:23:08.813Z,4.54
2023-06-14T10:24:08.830Z,5.20
2023-06-14T10:25:09.901Z,4.42
2023-06-14T10:26:08.797Z,4.36
2023-06-14T10:27:08.871Z,4.46
2023-06-14T10:28:08.776Z,4.50
2023-06-14T10:29:09.784Z,4.23
2023-06-14T10:30:09.841Z,4.53
2023-06-14T10:31:10.071Z,4.54
2023-06-14T10:32:09.864Z,4.79
2023-06-14T10:33:09.771Z,5.04
2023-06-14T10:34:08.715Z,5.06
2023-06-14T10:35:08.773Z,4.04
2023-06-14T10:36:09.706Z,4.58
2023-06-14T10:37:09.699Z,4.88
2023-06-14T10:38:09.686Z,4.83
2023-06-14T10:39:09.706Z,4.60
2023-06-14T10:40:08.711Z,4.27
2023-06-14T10:41:08.682Z,4.81
2023-06-14T10:42:09.682Z,3.92
2023-06-14T10:43:09.868Z,4.47
2023-06-14T10:44:09.655Z,4.42
2023-06-14T10:45:10.114Z,4.19
2023-06-14T10:46:08.736Z,4.52
2023-06-14T10:47:09.674Z,4.84
2023-06-14T10:48:08.699Z,3.84
2023-06-14T10:49:09.648Z,5.92
2023-06-14T10:50:09.626Z,4.92
2023-06-14T10:51:09.597Z,4.59
2023-06-14T10:52:09.656Z,4.70
2023-06-14T10:53:10.085Z,4.37
2023-06-14T10:54:09.592Z,4.05
2023-06-14T10:55:09.727Z,4.80
2023-06-14T10:56:09.616Z,4.15
2023-06-14T10:57:08.682Z,4.59
2023-06-14T10:58:09.729Z,4.23
2023-06-14T10:59:08.611Z,4.44
2023-06-14T11:00:09.852Z,4.01
2023-06-14T11:01:09.756Z,3.83
2023-06-14T11:02:09.651Z,4.34
2023-06-14T11:03:09.761Z,4.31
2023-06-14T11:04:09.668Z,4.64
2023-06-14T11:05:09.672Z,4.33
2023-06-14T11:06:09.717Z,3.95
2023-06-14T11:07:09.773Z,4.16
2023-06-14T11:08:10.292Z,4.75
2023-06-14T11:09:08.700Z,4.24
2023-06-14T11:10:09.731Z,4.44
2023-06-14T11:11:09.805Z,4.09
2023-06-14T11:12:09.813Z,3.91
2023-06-14T11:13:08.903Z,4.09
2023-06-14T11:14:09.835Z,3.74
2023-06-14T11:15:09.850Z,4.92
2023-06-14T11:16:09.866Z,4.46
2023-06-14T11:17:09.911Z,4.66
2023-06-14T11:18:10.121Z,3.97
2023-06-14T11:19:10.005Z,4.20
2023-06-14T11:20:09.880Z,4.04
2023-06-14T11:21:09.929Z,3.88
2023-06-14T11:22:09.893Z,3.99
2023-06-14T11:23:09.892Z,4.16
2023-06-14T11:24:09.907Z,4.50
2023-06-14T11:25:09.010Z,4.11
2023-06-14T11:26:09.944Z,4.10
2023-06-14T11:27:09.937Z,4.49
2023-06-14T11:28:10.429Z,3.81
2023-06-14T11:29:08.922Z,4.33
2023-06-14T11:30:10.063Z,3.40
2023-06-14T11:31:09.964Z,3.83
2023-06-14T11:32:10.330Z,4.18
2023-06-14T11:33:09.998Z,4.53
2023-06-14T11:34:10.057Z,3.90
2023-06-14T11:35:10.016Z,4.06
2023-06-14T11:36:10.162Z,4.21
2023-06-14T11:37:10.007Z,4.10
2023-06-14T11:38:10.010Z,4.24
2023-06-14T11:39:10.087Z,4.27
2023-06-14T11:40:10.315Z,3.61
2023-06-14T11:41:09.015Z,4.01
2023-06-14T11:42:10.030Z,4.12
2023-06-14T11:43:10.106Z,3.90
2023-06-14T11:44:10.118Z,3.91
2023-06-14T11:45:10.458Z,3.86
2023-06-14T11:46:10.072Z,4.00
2023-06-14T11:47:10.248Z,3.85
2023-06-14T11:48:10.179Z,4.64
2023-06-14T11:49:10.262Z,4.37
2023-06-14T11:50:10.355Z,4.21
2023-06-14T11:51:10.230Z,3.36
2023-06-14T11:52:10.206Z,4.62
2023-06-14T11:53:10.274Z,4.24
2023-06-14T11:54:10.232Z,4.18
2023-06-14T11:55:10.343Z,4.03
2023-06-14T11:56:10.213Z,3.52
2023-06-14T11:57:10.234Z,4.25
2023-06-14T11:58:10.230Z,4.29
2023-06-14T11:59:10.255Z,4.20
2023-06-14T12:00:10.273Z,4.07
2023-06-14T12:01:10.261Z,3.96
2023-06-14T12:02:10.357Z,3.79
2023-06-14T12:03:10.320Z,3.80
2023-06-14T12:04:10.268Z,4.05
2023-06-14T12:05:10.308Z,4.11
2023-06-14T12:06:10.492Z,3.94
2023-06-14T12:07:10.319Z,4.29
2023-06-14T12:08:10.296Z,3.30
2023-06-14T12:09:10.313Z,4.35
2023-06-14T12:10:09.347Z,3.70
2023-06-14T12:11:10.325Z,3.75
2023-06-14T12:12:09.336Z,4.01
2023-06-14T12:13:10.363Z,3.71
2023-06-14T12:14:10.387Z,3.94
2023-06-14T12:15:09.394Z,3.57
2023-06-14T12:16:09.369Z,3.82
2023-06-14T12:17:10.443Z,3.83
2023-06-14T12:18:10.465Z,3.07
2023-06-14T12:19:10.407Z,4.08
2023-06-14T12:20:10.412Z,3.83
2023-06-14T12:21:10.413Z,3.74
2023-06-14T12:22:10.408Z,3.52
2023-06-14T12:23:10.476Z,3.91
2023-06-14T12:24:10.489Z,3.61
2023-06-14T12:25:10.507Z,4.32
2023-06-14T12:26:12.111Z,3.26
2023-06-14T12:27:09.481Z,3.81
2023-06-14T12:28:10.450Z,3.42
2023-06-14T12:29:10.457Z,3.88
2023-06-14T12:30:10.467Z,4.10
2023-06-14T12:31:10.483Z,3.90
2023-06-14T12:32:10.547Z,3.72
2023-06-14T12:33:10.665Z,3.55
2023-06-14T12:34:09.458Z,3.81
2023-06-14T12:35:10.389Z,3.62
2023-06-14T12:36:10.383Z,3.99
2023-06-14T12:37:10.396Z,3.57
2023-06-14T12:38:10.415Z,4.28
2023-06-14T12:39:10.470Z,3.13
2023-06-14T12:40:10.439Z,3.75
2023-06-14T12:41:10.427Z,3.80
2023-06-14T12:42:10.371Z,3.64
2023-06-14T12:43:09.410Z,3.68
2023-06-14T12:44:10.352Z,3.81
2023-06-14T12:45:10.355Z,3.32
2023-06-14T12:46:09.386Z,3.52
2023-06-14T12:47:10.335Z,4.26
2023-06-14T12:48:10.361Z,3.59
2023-06-14T12:49:10.308Z,3.60
2023-06-14T12:50:10.298Z,3.45
2023-06-14T12:51:10.286Z,4.14
2023-06-14T12:52:10.302Z,4.46
2023-06-14T12:53:09.270Z,3.64
2023-06-14T12:54:10.341Z,3.29
2023-06-14T12:55:10.344Z,3.42
2023-06-14T12:56:10.256Z,3.74
2023-06-14T12:57:10.246Z,3.62
2023-06-14T12:58:09.229Z,3.59
2023-06-14T12:59:10.231Z,3.31
2023-06-14T13:00:10.255Z,3.57
2023-06-14T13:01:10.279Z,3.64
2023-06-14T13:02:10.300Z,4.37
2023-06-14T13:03:10.228Z,4.83
2023-06-14T13:04:10.271Z,4.48
2023-06-14T13:05:10.181Z,4.93
2023-06-14T13:06:09.234Z,5.31
2023-06-14T13:07:10.190Z,4.83
2023-06-14T13:08:10.205Z,5.02
2023-06-14T13:09:10.214Z,5.33
2023-06-14T13:10:09.268Z,5.11
2023-06-14T13:11:10.205Z,5.29
2023-06-14T13:12:10.159Z,5.33
2023-06-14T13:13:10.155Z,5.48
2023-06-14T13:14:24.810Z,5.25
2023-06-14T13:15:10.136Z,5.45
2023-06-14T13:16:10.175Z,4.99
2023-06-14T13:17:10.162Z,6.08
2023-06-14T13:18:10.179Z,5.72
2023-06-14T13:19:10.136Z,5.48